createdAt,value
2023-01-13T00:00:32.165Z,2.50
2023-01-13T00:03:00.287Z,3.67
2023-01-13T00:05:28.504Z,2.00
2023-01-13T00:07:56.663Z,2.30
2023-01-13T00:10:24.810Z,2.00
2023-01-13T00:12:53.621Z,2.40
2023-01-13T00:15:21.755Z,1.27
2023-01-13T00:17:51.408Z,1.30
2023-01-13T00:20:19.776Z,1.90
2023-01-13T00:22:48.045Z,1.40
2023-01-13T00:25:16.327Z,1.47
2023-01-13T00:27:44.465Z,1.33
2023-01-13T00:30:13.719Z,1.83
2023-01-13T00:32:41.899Z,1.13
2023-01-13T00:35:11.460Z,1.50
2023-01-13T00:37:39.913Z,1.70
2023-01-13T00:40:09.487Z,0.87
2023-01-13T00:42:54.831Z,1.90
2023-01-13T00:45:22.988Z,1.90
2023-01-13T00:47:51.204Z,1.60
2023-01-13T00:50:20.700Z,2.17
2023-01-13T00:52:48.788Z,1.97
2023-01-13T00:55:17.000Z,2.70
2023-01-13T00:57:45.239Z,2.03
2023-01-13T01:00:14.646Z,1.93
2023-01-13T01:02:42.790Z,2.80
2023-01-13T01:05:11.485Z,1.53
2023-01-13T01:07:41.061Z,1.90
2023-01-13T01:10:10.385Z,1.63
2023-01-13T01:12:38.478Z,2.20
2023-01-13T01:15:10.055Z,1.50
2023-01-13T01:17:46.170Z,2.70
2023-01-13T01:20:14.851Z,2.17
2023-01-13T01:22:44.493Z,1.80
2023-01-13T01:25:12.621Z,1.90
2023-01-13T01:27:40.915Z,2.83
2023-01-13T01:30:10.736Z,1.77
2023-01-13T01:32:38.854Z,1.90
2023-01-13T01:35:08.020Z,2.00
2023-01-13T01:37:37.425Z,3.13
2023-01-13T01:40:08.226Z,1.57
2023-01-13T01:42:54.042Z,1.97
2023-01-13T01:45:24.642Z,2.10
2023-01-13T01:47:56.435Z,1.57
2023-01-13T01:50:25.566Z,1.30
2023-01-13T01:52:58.103Z,2.33
2023-01-13T01:55:30.808Z,2.17
2023-01-13T01:58:06.828Z,2.40
2023-01-13T02:00:35.085Z,2.47
2023-01-13T02:03:06.460Z,1.80
2023-01-13T02:05:35.604Z,3.67
2023-01-13T02:08:04.753Z,2.27
2023-01-13T02:10:34.369Z,2.33
2023-01-13T02:13:05.295Z,4.03
2023-01-13T02:15:40.930Z,1.53
2023-01-13T02:18:36.754Z,2.40
2023-01-13T02:21:36.444Z,1.70
2023-01-13T02:24:48.794Z,1.97
2023-01-13T02:27:42.772Z,2.93
2023-01-13T02:30:37.813Z,2.17
2023-01-13T02:33:18.955Z,2.00
2023-01-13T02:35:51.993Z,1.97
2023-01-13T02:38:24.161Z,2.00
2023-01-13T02:40:59.531Z,1.93
2023-01-13T02:43:52.277Z,1.50
2023-01-13T02:46:26.597Z,1.80
2023-01-13T02:48:58.392Z,1.50
2023-01-13T02:51:30.026Z,2.07
2023-01-13T02:54:03.214Z,1.77
2023-01-13T02:56:34.461Z,1.57
2023-01-13T02:59:03.504Z,1.90
2023-01-13T03:01:33.245Z,1.57
2023-01-13T03:04:01.419Z,2.10
2023-01-13T03:06:44.072Z,1.77
2023-01-13T03:09:18.337Z,1.80
2023-01-13T03:11:54.729Z,1.43
2023-01-13T03:14:36.038Z,1.30
2023-01-13T03:17:18.592Z,1.20
2023-01-13T03:19:58.492Z,1.70
2023-01-13T03:22:32.488Z,1.60
2023-01-13T03:25:07.789Z,3.90
2023-01-13T03:27:45.255Z,2.07
2023-01-13T03:30:18.075Z,4.00
2023-01-13T03:32:50.686Z,1.77
2023-01-13T03:35:25.020Z,2.00
2023-01-13T03:38:04.010Z,2.10
2023-01-13T03:40:36.920Z,1.90
2023-01-13T03:43:29.418Z,1.97
2023-01-13T03:46:04.266Z,1.57
2023-01-13T03:48:38.290Z,1.57
2023-01-13T03:51:09.208Z,2.00
2023-01-13T03:53:41.703Z,2.30
2023-01-13T03:56:16.975Z,1.93
2023-01-13T03:58:49.418Z,1.53
2023-01-13T04:01:21.339Z,1.50
2023-01-13T04:03:56.125Z,2.10
2023-01-13T04:06:32.200Z,1.93
2023-01-13T04:09:09.675Z,1.80
2023-01-13T04:11:44.541Z,1.67
2023-01-13T04:14:16.517Z,2.13
2023-01-13T04:16:44.738Z,1.43
2023-01-13T04:19:14.385Z,1.70
2023-01-13T04:21:42.785Z,2.47
2023-01-13T04:24:11.263Z,1.63
2023-01-13T04:26:39.406Z,2.50
2023-01-13T04:29:07.590Z,2.30
2023-01-13T04:31:35.746Z,1.90
2023-01-13T04:34:04.249Z,2.10
2023-01-13T04:36:33.879Z,2.40
2023-01-13T04:39:01.974Z,2.80
2023-01-13T04:41:50.172Z,2.00
2023-01-13T04:44:18.256Z,2.73
2023-01-13T04:46:46.319Z,1.40
2023-01-13T04:49:14.361Z,2.00
2023-01-13T04:51:44.069Z,1.97
2023-01-13T04:54:12.712Z,1.50
2023-01-13T04:56:41.025Z,2.60
2023-01-13T04:59:10.876Z,2.47
2023-01-13T05:01:39.611Z,6.67
2023-01-13T05:04:09.013Z,4.07
2023-01-13T05:06:37.086Z,5.30
2023-01-13T05:09:06.774Z,2.73
2023-01-13T05:11:52.400Z,3.07
2023-01-13T05:14:37.902Z,2.83
2023-01-13T05:17:06.079Z,1.77
2023-01-13T05:19:36.357Z,2.30
2023-01-13T05:22:22.030Z,1.87
2023-01-13T05:25:14.135Z,4.00
2023-01-13T05:27:42.201Z,3.43
2023-01-13T05:30:11.654Z,1.80
2023-01-13T05:32:39.708Z,2.23
2023-01-13T05:35:08.203Z,3.00
2023-01-13T05:37:36.664Z,3.00
2023-01-13T05:40:25.115Z,2.60
2023-01-13T05:43:20.129Z,3.80
2023-01-13T05:45:49.379Z,3.20
2023-01-13T05:48:18.660Z,6.37
2023-01-13T05:50:49.329Z,4.90
2023-01-13T05:53:18.378Z,3.03
2023-01-13T05:55:48.037Z,2.57
2023-01-13T05:58:17.698Z,2.27
2023-01-13T06:00:46.604Z,2.30
2023-01-13T06:03:16.170Z,4.07
2023-01-13T06:05:44.752Z,3.70
2023-01-13T06:08:12.937Z,2.50
2023-01-13T06:10:41.105Z,4.53
2023-01-13T06:13:10.655Z,3.87
2023-01-13T06:15:38.806Z,2.50
2023-01-13T06:18:07.310Z,5.60
2023-01-13T06:20:35.463Z,4.37
2023-01-13T06:23:03.741Z,3.30
2023-01-13T06:25:40.988Z,3.10
2023-01-13T06:28:10.754Z,3.03
2023-01-13T06:30:42.905Z,3.23
2023-01-13T06:33:14.907Z,3.20
2023-01-13T06:35:47.757Z,3.30
2023-01-13T06:38:19.590Z,3.30
2023-01-13T06:40:48.575Z,2.70
2023-01-13T06:43:17.770Z,3.17
2023-01-13T06:45:50.438Z,3.47
2023-01-13T06:48:19.951Z,3.57
2023-01-13T06:50:48.058Z,4.07
2023-01-13T06:53:16.347Z,3.53
2023-01-13T06:55:44.535Z,2.57
2023-01-13T06:58:12.970Z,2.70
2023-01-13T07:00:42.655Z,3.43
2023-01-13T07:03:12.704Z,4.13
2023-01-13T07:05:41.813Z,4.90
2023-01-13T07:08:10.814Z,3.70
2023-01-13T07:10:39.592Z,3.83
2023-01-13T07:13:25.309Z,2.40
2023-01-13T07:16:00.216Z,2.90
2023-01-13T07:18:31.568Z,2.90
2023-01-13T07:21:01.406Z,3.83
2023-01-13T07:23:30.954Z,4.13
2023-01-13T07:26:00.170Z,3.83
2023-01-13T07:28:29.652Z,4.57
2023-01-13T07:31:00.016Z,3.40
2023-01-13T07:33:28.552Z,2.77
2023-01-13T07:35:59.085Z,3.63
2023-01-13T07:38:27.897Z,3.57
2023-01-13T07:40:56.508Z,4.10
2023-01-13T07:43:34.533Z,3.57
2023-01-13T07:46:06.724Z,3.50
2023-01-13T07:48:36.312Z,3.03
2023-01-13T07:51:07.756Z,2.70
2023-01-13T07:53:37.394Z,2.20
2023-01-13T07:56:07.498Z,2.97
2023-01-13T07:58:37.610Z,2.47
2023-01-13T08:01:11.028Z,3.53
2023-01-13T08:03:39.363Z,3.30
2023-01-13T08:06:08.315Z,3.07
2023-01-13T08:08:36.744Z,3.40
2023-01-13T08:11:06.691Z,2.87
2023-01-13T08:13:35.338Z,4.40
2023-01-13T08:16:05.512Z,3.33
2023-01-13T08:18:36.079Z,3.40
2023-01-13T08:21:07.951Z,2.63
2023-01-13T08:23:36.504Z,3.70
2023-01-13T08:26:06.436Z,3.83
2023-01-13T08:28:34.903Z,3.00
2023-01-13T08:31:04.013Z,2.40
2023-01-13T08:33:37.686Z,2.90
2023-01-13T08:36:07.150Z,3.33
2023-01-13T08:38:36.293Z,5.60
2023-01-13T08:41:11.527Z,7.13
2023-01-13T08:43:39.766Z,3.70
2023-01-13T08:46:08.346Z,4.90
2023-01-13T08:48:39.415Z,3.43
2023-01-13T08:51:10.486Z,4.60
2023-01-13T08:53:38.605Z,3.63
2023-01-13T08:56:11.039Z,3.87
2023-01-13T08:58:39.304Z,2.70
2023-01-13T09:01:08.831Z,9.73
2023-01-13T09:03:39.199Z,6.70
2023-01-13T09:06:07.911Z,4.83
2023-01-13T09:08:36.107Z,5.90
2023-01-13T09:11:24.422Z,4.90
2023-01-13T09:13:52.209Z,5.40
2023-01-13T09:16:20.442Z,5.03
2023-01-13T09:18:50.467Z,4.13
2023-01-13T09:21:21.371Z,3.57
2023-01-13T09:23:49.652Z,5.17
2023-01-13T09:26:21.420Z,6.30
2023-01-13T09:28:49.615Z,5.60
2023-01-13T09:31:17.831Z,3.00
2023-01-13T09:34:04.451Z,4.73
2023-01-13T09:36:34.104Z,6.23
2023-01-13T09:39:02.332Z,5.07
2023-01-13T09:41:52.114Z,5.10
2023-01-13T09:44:27.391Z,4.67
2023-01-13T09:47:01.300Z,4.30
2023-01-13T09:49:38.994Z,8.93
2023-01-13T09:52:15.193Z,4.40
2023-01-13T09:54:45.030Z,7.50
2023-01-13T09:57:16.063Z,5.40
2023-01-13T09:59:45.169Z,5.20
2023-01-13T10:02:57.104Z,6.73
2023-01-13T10:05:35.092Z,5.47
2023-01-13T10:08:12.739Z,4.00
2023-01-13T10:10:46.550Z,7.70
2023-01-13T10:13:20.478Z,6.83
2023-01-13T10:16:03.323Z,4.07
2023-01-13T10:18:48.271Z,4.87
2023-01-13T10:21:32.832Z,5.97
2023-01-13T10:24:07.386Z,5.53
2023-01-13T10:27:01.902Z,4.80
2023-01-13T10:29:31.179Z,4.40
2023-01-13T10:32:01.114Z,5.30
2023-01-13T10:34:30.258Z,4.40
2023-01-13T10:37:01.770Z,4.83
2023-01-13T10:39:41.171Z,4.37
2023-01-13T10:42:15.275Z,5.37
2023-01-13T10:44:51.959Z,5.20
2023-01-13T10:47:23.815Z,4.87
2023-01-13T10:50:05.958Z,4.23
2023-01-13T10:52:39.443Z,5.43
2023-01-13T10:55:27.639Z,7.93
2023-01-13T10:57:55.902Z,5.97
2023-01-13T11:00:32.984Z,5.43
2023-01-13T11:03:16.360Z,6.00
2023-01-13T11:05:50.872Z,5.67
2023-01-13T11:08:21.105Z,5.80
2023-01-13T11:10:53.176Z,9.70
2023-01-13T11:13:30.421Z,5.53
2023-01-13T11:16:03.071Z,5.33
2023-01-13T11:18:41.657Z,5.97
2023-01-13T11:21:19.418Z,6.07
2023-01-13T11:23:54.081Z,7.10
2023-01-13T11:26:33.560Z,5.67
2023-01-13T11:29:07.018Z,7.20
2023-01-13T11:31:41.233Z,5.80
2023-01-13T11:34:26.804Z,4.23
2023-01-13T11:36:58.162Z,6.00
2023-01-13T11:39:39.687Z,9.27
2023-01-13T11:42:24.812Z,9.17
2023-01-13T11:45:13.595Z,7.50
2023-01-13T11:47:41.934Z,6.80
2023-01-13T11:50:17.793Z,7.57
2023-01-13T11:53:06.126Z,7.07
2023-01-13T11:55:42.182Z,6.43
2023-01-13T11:58:28.081Z,13.43
2023-01-13T12:01:10.978Z,9.50
2023-01-13T12:03:44.215Z,11.77
2023-01-13T12:06:32.648Z,9.87
2023-01-13T12:09:23.535Z,7.80
2023-01-13T12:12:20.770Z,7.90
2023-01-13T12:15:22.546Z,14.20
2023-01-13T12:18:03.796Z,6.50
2023-01-13T12:20:38.053Z,12.90
2023-01-13T12:23:12.986Z,10.30
2023-01-13T12:25:46.989Z,9.93
2023-01-13T12:28:20.924Z,8.23
2023-01-13T12:30:55.239Z,10.77
2023-01-13T12:33:32.840Z,9.80
2023-01-13T12:36:07.534Z,7.70
2023-01-13T12:38:38.948Z,8.03
2023-01-13T12:41:18.009Z,6.40
2023-01-13T12:44:07.487Z,10.93
2023-01-13T12:46:56.163Z,12.10
2023-01-13T12:49:26.977Z,13.43
2023-01-13T12:52:12.768Z,11.93
2023-01-13T12:55:10.464Z,12.13
2023-01-13T12:57:40.329Z,9.37
2023-01-13T13:00:19.209Z,12.63
2023-01-13T13:03:30.310Z,10.07
2023-01-13T13:06:24.120Z,12.33
2023-01-13T13:09:03.606Z,13.23
2023-01-13T13:12:04.864Z,10.40
2023-01-13T13:15:04.933Z,10.07
2023-01-13T13:18:01.316Z,11.90
2023-01-13T13:20:57.240Z,11.30
2023-01-13T13:23:59.048Z,11.07
2023-01-13T13:26:36.584Z,15.80
2023-01-13T13:29:37.582Z,13.40
2023-01-13T13:32:23.274Z,12.40
2023-01-13T13:35:01.564Z,15.63
2023-01-13T13:38:03.894Z,22.23
2023-01-13T13:41:04.148Z,21.77
2023-01-13T13:43:57.887Z,14.53
2023-01-13T13:46:46.951Z,17.70
2023-01-13T13:49:15.778Z,14.70
2023-01-13T13:51:50.387Z,9.63
2023-01-13T13:54:22.723Z,13.17
2023-01-13T13:56:52.345Z,15.20
2023-01-13T13:59:24.748Z,14.10
2023-01-13T14:02:01.745Z,11.03
2023-01-13T14:04:32.995Z,18.60
2023-01-13T14:07:05.118Z,11.70
2023-01-13T14:09:45.427Z,11.33
2023-01-13T14:12:20.302Z,16.63
2023-01-13T14:14:49.469Z,10.33
2023-01-13T14:17:23.842Z,15.03
2023-01-13T14:19:59.293Z,13.83
2023-01-13T14:22:28.051Z,13.10
2023-01-13T14:24:58.666Z,19.13
2023-01-13T14:27:28.780Z,16.40
2023-01-13T14:29:59.448Z,14.17
2023-01-13T14:32:33.983Z,16.57
2023-01-13T14:35:02.879Z,12.83
2023-01-13T14:37:36.722Z,13.50
2023-01-13T14:40:07.910Z,11.30
2023-01-13T14:42:36.380Z,11.07
2023-01-13T14:45:05.145Z,13.00
2023-01-13T14:47:34.946Z,12.73
2023-01-13T14:50:07.739Z,12.47
2023-01-13T14:52:39.312Z,18.40
2023-01-13T14:55:24.271Z,17.20
2023-01-13T14:57:52.589Z,14.97
2023-01-13T15:00:25.646Z,14.07
2023-01-13T15:03:08.456Z,13.00
2023-01-13T15:05:47.745Z,15.30
2023-01-13T15:08:36.221Z,17.97
2023-01-13T15:11:08.104Z,11.87
2023-01-13T15:13:48.882Z,18.10
2023-01-13T15:16:25.237Z,15.60
2023-01-13T15:18:54.121Z,15.63
2023-01-13T15:21:23.225Z,14.50
2023-01-13T15:23:51.587Z,17.27
2023-01-13T15:26:26.709Z,16.57
2023-01-13T15:28:56.054Z,17.40
2023-01-13T15:31:25.235Z,17.73
2023-01-13T15:33:53.551Z,13.57
2023-01-13T15:36:25.908Z,16.30
2023-01-13T15:38:54.906Z,18.07
2023-01-13T15:41:38.545Z,16.70
2023-01-13T15:44:24.284Z,18.90
2023-01-13T15:46:53.446Z,15.03
2023-01-13T15:49:27.810Z,15.00
2023-01-13T15:51:56.218Z,17.47
2023-01-13T15:54:24.814Z,17.87
2023-01-13T15:57:22.997Z,14.47
2023-01-13T15:59:52.219Z,16.30
2023-01-13T16:02:22.702Z,17.20
2023-01-13T16:04:53.931Z,15.23
2023-01-13T16:07:23.873Z,17.30
2023-01-13T16:09:52.378Z,19.53
2023-01-13T16:12:22.034Z,20.67
2023-01-13T16:14:50.198Z,24.10
2023-01-13T16:17:20.180Z,24.60
2023-01-13T16:19:48.810Z,23.87
2023-01-13T16:22:17.523Z,26.70
2023-01-13T16:24:45.916Z,28.40
2023-01-13T16:27:16.312Z,19.53
2023-01-13T16:29:47.190Z,23.43
2023-01-13T16:32:15.906Z,28.63
2023-01-13T16:34:44.345Z,27.10
2023-01-13T16:37:20.572Z,21.13
2023-01-13T16:39:48.972Z,26.43
2023-01-13T16:42:17.276Z,25.70
2023-01-13T16:44:48.480Z,29.77
2023-01-13T16:47:18.848Z,30.47
2023-01-13T16:49:47.614Z,29.63
2023-01-13T16:52:15.854Z,29.03
2023-01-13T16:54:43.979Z,25.17
2023-01-13T16:57:14.163Z,24.77
2023-01-13T16:59:42.289Z,25.47
2023-01-13T17:02:19.263Z,24.50
2023-01-13T17:04:49.149Z,26.77
2023-01-13T17:07:18.951Z,22.27
2023-01-13T17:09:48.011Z,22.97
2023-01-13T17:12:18.176Z,20.20
2023-01-13T17:14:46.508Z,18.93
2023-01-13T17:17:23.971Z,21.10
2023-01-13T17:19:54.227Z,25.40
2023-01-13T17:22:23.076Z,18.63
2023-01-13T17:24:51.320Z,18.70
2023-01-13T17:27:21.294Z,20.73
2023-01-13T17:29:51.842Z,20.13
2023-01-13T17:32:23.034Z,19.10
2023-01-13T17:34:53.930Z,18.40
2023-01-13T17:37:22.061Z,22.70
2023-01-13T17:39:51.224Z,15.83
2023-01-13T17:42:20.934Z,18.10
2023-01-13T17:44:50.478Z,21.10
2023-01-13T17:47:18.710Z,26.93
2023-01-13T17:49:48.325Z,27.77
2023-01-13T17:52:16.546Z,29.13
2023-01-13T17:54:44.653Z,21.20
2023-01-13T17:57:12.788Z,21.37
2023-01-13T17:59:42.103Z,18.40
2023-01-13T18:02:12.897Z,20.23
2023-01-13T18:04:41.761Z,19.43
2023-01-13T18:07:11.313Z,17.70
2023-01-13T18:09:39.488Z,17.47
2023-01-13T18:12:07.945Z,17.57
2023-01-13T18:14:36.310Z,17.47
2023-01-13T18:17:04.726Z,19.80
2023-01-13T18:19:50.146Z,17.13
2023-01-13T18:22:37.048Z,19.27
2023-01-13T18:25:22.971Z,25.53
2023-01-13T18:27:51.097Z,18.80
2023-01-13T18:30:19.423Z,25.50
2023-01-13T18:32:47.566Z,27.83
2023-01-13T18:35:15.674Z,30.37
2023-01-13T18:37:45.214Z,20.37
2023-01-13T18:40:14.922Z,23.60
2023-01-13T18:42:59.250Z,24.10
2023-01-13T18:45:28.933Z,23.60
2023-01-13T18:47:59.202Z,24.70
2023-01-13T18:50:28.358Z,26.90
2023-01-13T18:52:58.807Z,25.00
2023-01-13T18:55:28.749Z,27.10
2023-01-13T18:57:57.420Z,31.57
2023-01-13T19:00:27.051Z,31.53
2023-01-13T19:05:35.444Z,26.37
2023-01-13T19:08:05.699Z,27.33
2023-01-13T19:10:33.925Z,30.53
2023-01-13T19:13:02.590Z,34.90
2023-01-13T19:15:30.989Z,33.77
2023-01-13T19:17:59.178Z,37.50
2023-01-13T19:20:27.411Z,31.60
2023-01-13T19:22:55.573Z,30.57
2023-01-13T19:25:25.280Z,31.27
2023-01-13T19:27:53.391Z,29.73
2023-01-13T19:30:21.547Z,42.73
2023-01-13T19:32:49.723Z,28.90
2023-01-13T19:35:18.270Z,38.30
2023-01-13T19:37:46.866Z,34.50
2023-01-13T19:40:15.753Z,26.50
2023-01-13T19:43:05.884Z,25.87
2023-01-13T19:45:36.297Z,29.70
2023-01-13T19:48:05.910Z,23.87
2023-01-13T19:50:38.567Z,29.83
2023-01-13T19:53:07.610Z,30.00
2023-01-13T19:55:36.031Z,24.10
2023-01-13T19:58:05.672Z,29.60
2023-01-13T20:00:34.955Z,16.83
2023-01-13T20:03:08.104Z,24.37
2023-01-13T20:05:36.444Z,21.40
2023-01-13T20:08:04.764Z,19.53
2023-01-13T20:10:32.899Z,27.10
2023-01-13T20:13:01.957Z,27.53
2023-01-13T20:15:31.766Z,29.23
2023-01-13T20:18:00.607Z,26.30
2023-01-13T20:20:29.766Z,28.70
2023-01-13T20:22:59.595Z,26.07
2023-01-13T20:25:28.809Z,31.10
2023-01-13T20:27:58.669Z,33.83
2023-01-13T20:30:26.920Z,36.53
2023-01-13T20:32:56.605Z,41.60
2023-01-13T20:35:29.860Z,37.30
2023-01-13T20:37:58.295Z,36.23
2023-01-13T20:40:26.455Z,31.77
2023-01-13T20:42:53.703Z,35.00
2023-01-13T20:45:23.500Z,28.63
2023-01-13T20:47:51.763Z,30.30
2023-01-13T20:50:21.518Z,32.80
2023-01-13T20:52:49.689Z,34.13
2023-01-13T20:55:17.899Z,29.60
2023-01-13T20:57:48.844Z,23.97
2023-01-13T21:00:18.195Z,31.60
2023-01-13T21:02:46.305Z,28.90
2023-01-13T21:05:14.544Z,26.63
2023-01-13T21:07:44.112Z,29.50
2023-01-13T21:10:12.596Z,31.50
2023-01-13T21:12:58.465Z,29.63
2023-01-13T21:15:27.543Z,30.53
2023-01-13T21:18:13.235Z,31.70
2023-01-13T21:20:41.305Z,36.10
2023-01-13T21:23:11.958Z,33.63
2023-01-13T21:25:40.544Z,28.83
2023-01-13T21:28:11.539Z,29.70
2023-01-13T21:30:40.454Z,30.13
2023-01-13T21:33:09.328Z,40.33
2023-01-13T21:35:39.410Z,30.77
2023-01-13T21:38:07.570Z,33.93
2023-01-13T21:40:37.183Z,31.67
2023-01-13T21:43:22.958Z,39.93
2023-01-13T21:46:08.367Z,34.00
2023-01-13T21:48:36.482Z,35.33
2023-01-13T21:51:04.805Z,37.90
2023-01-13T21:53:32.895Z,32.40
2023-01-13T21:56:02.358Z,33.13
2023-01-13T21:58:30.534Z,32.40
2023-01-13T22:01:02.776Z,30.30
2023-01-13T22:03:50.986Z,29.67
2023-01-13T22:06:19.143Z,30.93
2023-01-13T22:08:47.257Z,37.80
2023-01-13T22:11:17.173Z,40.70
2023-01-13T22:14:08.454Z,31.30
2023-01-13T22:16:39.518Z,33.53
2023-01-13T22:19:08.924Z,32.10
2023-01-13T22:21:37.666Z,33.93
2023-01-13T22:24:06.228Z,34.63
2023-01-13T22:26:35.791Z,27.73
2023-01-13T22:29:04.005Z,31.10
2023-01-13T22:31:32.242Z,29.07
2023-01-13T22:34:00.526Z,28.57
2023-01-13T22:36:28.801Z,27.63
2023-01-13T22:39:00.312Z,30.20
2023-01-13T22:41:28.487Z,25.23
2023-01-13T22:43:58.156Z,22.10
2023-01-13T22:46:26.283Z,27.83
2023-01-13T22:48:56.057Z,24.13
2023-01-13T22:51:25.308Z,26.03
2023-01-13T22:53:53.603Z,23.43
2023-01-13T22:56:24.195Z,27.90
2023-01-13T22:58:55.263Z,26.33
2023-01-13T23:01:25.976Z,22.17
2023-01-13T23:03:54.825Z,20.60
2023-01-13T23:06:25.627Z,19.80
2023-01-13T23:08:54.580Z,18.90
2023-01-13T23:11:25.342Z,16.47
2023-01-13T23:13:57.477Z,14.87
2023-01-13T23:16:28.106Z,19.70
2023-01-13T23:18:56.320Z,20.37
2023-01-13T23:21:27.383Z,19.23
2023-01-13T23:23:58.383Z,24.83
2023-01-13T23:26:27.433Z,17.47
2023-01-13T23:29:00.092Z,19.03
2023-01-13T23:31:29.800Z,19.53
2023-01-13T23:33:57.974Z,23.73
2023-01-13T23:36:27.453Z,23.87
2023-01-13T23:38:56.993Z,19.23
2023-01-13T23:41:27.145Z,18.37
2023-01-13T23:43:56.847Z,19.93
2023-01-13T23:46:25.928Z,23.13
2023-01-13T23:48:56.338Z,23.70
2023-01-13T23:51:26.194Z,21.80
2023-01-13T23:53:55.106Z,26.40
2023-01-13T23:56:25.643Z,23.23
2023-01-13T23:58:54.148Z,24.97
